Time;durP1;ratioP1;P1;durP2;ratioP2;P2;SDS_P1;SDS_P2;PMS_P1;PMS_P2;Temp;Humidity;BMP_temperature;BMP_pressure;BME280_temperature;BME280_humidity;BME280_pressure;Samples;Min_cycle;Max_cycle;Signal;HPM_P1;HPM_P2
2023/08/13 00:01:58;;;;;;;13.00;3.08;;;16.60;99.90;;;;;;5048198;28;20049;-69
2023/08/13 00:04:24;;;;;;;14.63;2.95;;;16.60;99.90;;;;;;5046969;28;20139;-70
2023/08/13 00:06:49;;;;;;;14.13;2.67;;;16.60;99.90;;;;;;5046746;28;20045;-70
2023/08/13 00:09:15;;;;;;;14.07;3.28;;;16.60;99.90;;;;;;5046916;28;20146;-70
2023/08/13 00:11:41;;;;;;;17.05;3.20;;;16.50;99.90;;;;;;5029371;28;20095;-70
2023/08/13 00:14:07;;;;;;;15.32;2.70;;;16.50;99.90;;;;;;5029478;28;20044;-69
2023/08/13 00:16:32;;;;;;;11.40;2.80;;;16.50;99.90;;;;;;5046988;28;20119;-69
2023/08/13 00:18:58;;;;;;;13.73;2.50;;;16.50;99.90;;;;;;5044052;28;20048;-70
2023/08/13 00:21:24;;;;;;;17.85;2.85;;;16.50;99.90;;;;;;5025899;28;20045;-69
2023/08/13 00:23:50;;;;;;;10.48;2.45;;;16.50;99.90;;;;;;5043681;28;20043;-69
2023/08/13 00:26:16;;;;;;;11.45;2.83;;;16.40;99.90;;;;;;5043989;28;20052;-69
2023/08/13 00:28:42;;;;;;;15.60;2.67;;;16.40;99.90;;;;;;5026596;28;20056;-69
2023/08/13 00:31:07;;;;;;;10.82;2.55;;;16.40;99.90;;;;;;5043184;28;20099;-69
2023/08/13 00:33:33;;;;;;;27.55;3.20;;;16.40;99.90;;;;;;5044163;28;20599;-69
2023/08/13 00:35:59;;;;;;;13.80;3.03;;;16.30;99.90;;;;;;5044032;28;20048;-70
2023/08/13 00:38:24;;;;;;;14.48;2.78;;;16.40;99.90;;;;;;5043749;28;20066;-69
2023/08/13 00:40:50;;;;;;;11.52;2.50;;;16.30;99.90;;;;;;5043110;28;20445;-69
2023/08/13 00:43:16;;;;;;;15.75;2.80;;;16.30;99.90;;;;;;5074669;28;20040;-69
2023/08/13 00:45:43;;;;;;;10.75;2.65;;;16.30;99.90;;;;;;5044503;28;20045;-70
2023/08/13 00:48:09;;;;;;;13.93;2.58;;;16.30;99.90;;;;;;5043507;28;20491;-69
2023/08/13 00:50:36;;;;;;;13.52;2.88;;;16.30;99.90;;;;;;5043710;28;20092;-69
2023/08/13 00:53:05;;;;;;;9.38;2.45;;;16.30;99.90;;;;;;5043775;28;20044;-69
2023/08/13 00:55:32;;;;;;;12.30;2.70;;;16.30;99.90;;;;;;5043600;28;20056;-70
2023/08/13 00:57:58;;;;;;;10.98;2.65;;;16.30;99.90;;;;;;5043868;28;20053;-70
2023/08/13 01:00:30;;;;;;;14.68;2.88;;;16.30;99.90;;;;;;5041496;28;20048;-69
2023/08/13 01:02:56;;;;;;;16.48;2.83;;;16.20;99.90;;;;;;5045093;28;20037;-70
2023/08/13 01:05:35;;;;;;;13.77;2.75;;;16.30;99.90;;;;;;5044536;28;20425;-69
2023/08/13 01:08:21;;;;;;;12.85;2.85;;;16.20;99.90;;;;;;5043228;28;20040;-69
2023/08/13 01:10:57;;;;;;;11.63;2.75;;;16.20;99.90;;;;;;5042124;28;20147;-69
2023/08/13 01:13:32;;;;;;;14.50;2.70;;;16.20;99.90;;;;;;5043550;28;20057;-69
2023/08/13 01:15:59;;;;;;;15.38;2.92;;;16.20;99.90;;;;;;5043062;28;20044;-69
2023/08/13 01:18:26;;;;;;;11.65;2.63;;;16.10;99.90;;;;;;5024205;28;20040;-69
2023/08/13 01:20:52;;;;;;;10.70;2.78;;;16.10;99.90;;;;;;5041890;28;20068;-69
2023/08/13 01:23:18;;;;;;;14.35;2.83;;;16.10;99.90;;;;;;5026006;28;20033;-69
2023/08/13 01:25:52;;;;;;;13.68;2.72;;;16.10;99.90;;;;;;5043246;28;20044;-69
2023/08/13 01:28:34;;;;;;;15.90;3.05;;;16.10;99.90;;;;;;5044668;28;20045;-69
2023/08/13 01:31:24;;;;;;;15.68;3.40;;;16.10;99.90;;;;;;5043353;28;20052;-69
2023/08/13 01:33:52;;;;;;;12.15;3.00;;;16.10;99.90;;;;;;5024373;28;20048;-69
2023/08/13 01:36:19;;;;;;;16.13;3.20;;;16.00;99.90;;;;;;5040342;28;22088;-69
2023/08/13 01:38:46;;;;;;;15.40;3.03;;;16.00;99.90;;;;;;5039942;28;20505;-69
2023/08/13 01:41:12;;;;;;;18.52;3.20;;;16.00;99.90;;;;;;5042148;28;20529;-69
2023/08/13 01:43:38;;;;;;;15.05;3.10;;;16.00;99.90;;;;;;5041936;28;20091;-69
2023/08/13 01:46:03;;;;;;;17.27;3.10;;;16.00;99.90;;;;;;5025712;28;20055;-70
2023/08/13 01:48:29;;;;;;;16.45;3.47;;;16.00;99.90;;;;;;5042673;28;20048;-69
2023/08/13 01:50:55;;;;;;;9.13;2.80;;;16.00;99.90;;;;;;5026356;28;20474;-69
2023/08/13 01:53:21;;;;;;;13.20;3.00;;;16.00;99.90;;;;;;5027477;28;20045;-70
2023/08/13 01:55:47;;;;;;;15.85;3.70;;;16.00;99.90;;;;;;5042224;28;20407;-69
2023/08/13 01:58:13;;;;;;;17.13;3.53;;;16.00;99.90;;;;;;5041936;28;20076;-69
2023/08/13 02:00:38;;;;;;;12.80;3.05;;;16.00;99.90;;;;;;5043264;28;20504;-69
2023/08/13 02:03:04;;;;;;;19.80;3.50;;;16.00;99.90;;;;;;5043748;28;20037;-69
2023/08/13 02:05:30;;;;;;;14.15;3.53;;;16.00;99.90;;;;;;5042883;28;20044;-69
2023/08/13 02:07:56;;;;;;;16.33;3.25;;;16.00;99.90;;;;;;5042991;28;20060;-69
2023/08/13 02:10:22;;;;;;;13.10;3.10;;;16.00;99.90;;;;;;5041889;28;20041;-70
2023/08/13 02:12:48;;;;;;;19.60;3.90;;;15.90;99.90;;;;;;5042613;28;20041;-69
2023/08/13 02:15:13;;;;;;;12.57;2.97;;;16.00;99.90;;;;;;5042446;28;20044;-69
2023/08/13 02:17:39;;;;;;;17.08;3.28;;;16.00;99.90;;;;;;5042648;28;20053;-69
2023/08/13 02:20:06;;;;;;;11.93;3.00;;;16.00;99.90;;;;;;5043691;28;20107;-69
2023/08/13 02:22:31;;;;;;;17.83;3.35;;;16.00;99.90;;;;;;5042327;28;20080;-70
2023/08/13 02:24:57;;;;;;;15.93;3.78;;;16.00;99.90;;;;;;5042608;28;20052;-69
2023/08/13 02:27:23;;;;;;;12.93;3.13;;;16.00;99.90;;;;;;5026680;28;20456;-69
2023/08/13 02:29:48;;;;;;;18.23;3.40;;;15.90;99.90;;;;;;5024768;28;20054;-68
2023/08/13 02:32:14;;;;;;;14.93;3.58;;;16.00;99.90;;;;;;5040768;28;20041;-69
2023/08/13 02:34:46;;;;;;;13.98;3.17;;;15.90;99.90;;;;;;5043199;28;20045;-68
2023/08/13 02:37:13;;;;;;;17.60;3.42;;;15.90;99.90;;;;;;5042355;28;20033;-69
2023/08/13 02:39:38;;;;;;;13.75;3.30;;;16.00;99.90;;;;;;5042255;28;20056;-69
2023/08/13 02:42:04;;;;;;;17.15;3.85;;;16.00;99.90;;;;;;5042842;28;20495;-68
2023/08/13 02:44:30;;;;;;;13.07;3.42;;;16.00;99.90;;;;;;5042333;28;20725;-69
2023/08/13 02:46:56;;;;;;;13.00;3.53;;;15.90;99.90;;;;;;5042867;28;20124;-70
2023/08/13 02:49:22;;;;;;;11.80;2.70;;;15.90;99.90;;;;;;5041820;28;20506;-69
2023/08/13 02:51:48;;;;;;;14.73;3.22;;;16.00;99.90;;;;;;5042697;28;20401;-70
2023/08/13 02:54:13;;;;;;;12.95;3.65;;;16.00;99.90;;;;;;5042499;28;20559;-69
2023/08/13 02:56:41;;;;;;;17.98;3.53;;;15.90;99.90;;;;;;5042501;28;20075;-70
2023/08/13 02:59:07;;;;;;;13.05;3.20;;;16.00;99.90;;;;;;5041489;28;20065;-69
2023/08/13 03:01:33;;;;;;;17.48;3.13;;;16.00;99.90;;;;;;5042873;28;20064;-70
2023/08/13 03:04:02;;;;;;;13.55;2.90;;;15.90;99.90;;;;;;5041556;28;20094;-69
2023/08/13 03:06:28;;;;;;;16.40;3.17;;;16.00;99.90;;;;;;5045218;28;20044;-69
2023/08/13 03:08:54;;;;;;;15.50;3.38;;;15.90;99.90;;;;;;5045046;28;20053;-69
2023/08/13 03:11:20;;;;;;;18.13;4.45;;;16.00;99.90;;;;;;5044977;28;20076;-69
2023/08/13 03:13:46;;;;;;;13.63;3.20;;;15.90;99.90;;;;;;5045024;28;20122;-70
2023/08/13 03:16:12;;;;;;;17.38;3.38;;;15.90;99.90;;;;;;5046847;28;20044;-69
2023/08/13 03:18:38;;;;;;;16.00;3.08;;;15.90;99.90;;;;;;5044748;28;20056;-70
2023/08/13 03:21:04;;;;;;;14.60;3.70;;;15.90;99.90;;;;;;5044892;28;20075;-70
2023/08/13 03:23:32;;;;;;;12.15;3.08;;;15.90;99.90;;;;;;5044764;28;20037;-70
2023/08/13 03:25:58;;;;;;;18.80;3.28;;;15.90;99.90;;;;;;5044364;28;20036;-70
2023/08/13 03:28:24;;;;;;;13.60;3.35;;;15.90;99.90;;;;;;5043647;28;20045;-70
2023/08/13 03:30:50;;;;;;;18.80;4.45;;;15.90;99.90;;;;;;5043613;28;20095;-70
2023/08/13 03:33:16;;;;;;;16.98;3.95;;;15.90;99.90;;;;;;5040164;28;20044;-70
2023/08/13 03:35:42;;;;;;;12.23;3.13;;;15.90;99.90;;;;;;5045694;28;20053;-70
2023/08/13 03:38:08;;;;;;;17.65;3.67;;;15.90;99.90;;;;;;5046092;28;20390;-70
2023/08/13 03:40:37;;;;;;;15.88;3.08;;;15.90;99.90;;;;;;5043612;28;20047;-70
2023/08/13 03:43:03;;;;;;;15.75;3.60;;;15.90;99.90;;;;;;5043059;28;20597;-70
2023/08/13 03:45:29;;;;;;;18.60;3.38;;;15.80;99.90;;;;;;5027409;28;20124;-70
2023/08/13 03:47:55;;;;;;;17.15;3.47;;;15.80;99.90;;;;;;5044305;28;20075;-70
2023/08/13 03:50:21;;;;;;;17.85;3.63;;;15.90;99.90;;;;;;5040078;28;20146;-70
2023/08/13 03:52:47;;;;;;;15.15;3.38;;;15.80;99.90;;;;;;5038250;28;20041;-70
2023/08/13 03:55:13;;;;;;;16.25;4.25;;;15.80;99.90;;;;;;5043431;28;20049;-70
2023/08/13 03:57:38;;;;;;;18.08;3.22;;;15.80;99.90;;;;;;5027716;28;20083;-70
2023/08/13 04:00:05;;;;;;;12.57;3.75;;;15.80;99.90;;;;;;5044821;28;20029;-69
2023/08/13 04:02:37;;;;;;;12.63;3.45;;;15.80;99.90;;;;;;5039837;28;20527;-70
2023/08/13 04:05:07;;;;;;;12.48;3.50;;;15.80;99.90;;;;;;5023880;28;20131;-69
2023/08/13 04:07:33;;;;;;;13.30;2.88;;;15.80;99.90;;;;;;5035942;28;20041;-70
2023/08/13 04:09:58;;;;;;;17.15;4.13;;;15.80;99.90;;;;;;5045454;28;20060;-69
2023/08/13 04:12:24;;;;;;;19.58;3.33;;;15.80;99.90;;;;;;5037807;28;20048;-69
2023/08/13 04:14:50;;;;;;;14.93;3.38;;;15.80;99.90;;;;;;5038193;28;20588;-70
2023/08/13 04:17:15;;;;;;;16.00;4.20;;;15.80;99.90;;;;;;5033345;28;20144;-70
2023/08/13 04:19:41;;;;;;;18.75;3.58;;;15.80;99.90;;;;;;5032157;28;20048;-70
2023/08/13 04:22:07;;;;;;;17.70;3.63;;;15.80;99.90;;;;;;5035591;28;20510;-69
2023/08/13 04:24:33;;;;;;;16.35;3.08;;;15.80;99.90;;;;;;5024896;28;20231;-69
2023/08/13 04:27:00;;;;;;;13.63;3.28;;;15.80;99.90;;;;;;5040199;28;20568;-70
2023/08/13 04:29:26;;;;;;;17.15;4.00;;;15.80;99.90;;;;;;5036800;28;20061;-69
2023/08/13 04:31:52;;;;;;;20.10;3.78;;;15.80;99.90;;;;;;5033741;28;20088;-69
2023/08/13 04:34:17;;;;;;;16.70;3.22;;;15.90;99.90;;;;;;5036308;28;20103;-69
2023/08/13 04:36:43;;;;;;;18.92;4.20;;;15.90;99.90;;;;;;5021636;28;20244;-70
2023/08/13 04:39:09;;;;;;;15.30;3.33;;;15.90;99.90;;;;;;5044993;28;20044;-70
2023/08/13 04:41:34;;;;;;;16.73;3.88;;;15.90;99.90;;;;;;5040193;28;20048;-70
2023/08/13 04:44:00;;;;;;;15.20;3.47;;;16.00;99.90;;;;;;5026209;28;20040;-70
2023/08/13 04:46:26;;;;;;;18.30;3.92;;;15.90;99.90;;;;;;5044371;28;20037;-71
2023/08/13 04:48:52;;;;;;;22.17;3.90;;;16.00;99.90;;;;;;5044143;28;20053;-70
2023/08/13 04:51:18;;;;;;;15.13;3.55;;;16.00;99.90;;;;;;5045398;28;20116;-70
2023/08/13 04:53:45;;;;;;;17.70;3.78;;;16.00;99.90;;;;;;5042704;28;20099;-70
2023/08/13 04:56:11;;;;;;;18.33;3.83;;;16.10;99.90;;;;;;5044103;28;20033;-70
2023/08/13 04:58:37;;;;;;;13.30;3.50;;;16.10;99.90;;;;;;5042632;28;20067;-70
2023/08/13 05:01:03;;;;;;;21.58;4.43;;;16.00;99.90;;;;;;5041767;28;20608;-70
2023/08/13 05:03:31;;;;;;;14.75;3.60;;;16.00;99.90;;;;;;5042115;28;20049;-70
2023/08/13 05:05:57;;;;;;;17.40;4.30;;;16.10;99.90;;;;;;5043132;28;20506;-70
2023/08/13 05:08:22;;;;;;;19.00;4.78;;;16.10;99.90;;;;;;5026436;28;20049;-69
2023/08/13 05:10:48;;;;;;;15.63;3.70;;;16.10;99.90;;;;;;5042849;28;20053;-70
2023/08/13 05:13:14;;;;;;;14.45;3.28;;;16.10;99.90;;;;;;5042069;28;20845;-69
2023/08/13 05:15:40;;;;;;;19.25;4.20;;;16.10;99.90;;;;;;5042242;28;20049;-69
2023/08/13 05:18:06;;;;;;;16.98;4.28;;;16.20;99.90;;;;;;5047208;28;20635;-69
2023/08/13 05:20:32;;;;;;;16.88;4.20;;;16.20;99.90;;;;;;5045116;28;20048;-69
2023/08/13 05:22:58;;;;;;;17.10;3.90;;;16.20;99.90;;;;;;5027314;28;20422;-70
2023/08/13 05:25:27;;;;;;;16.48;3.90;;;16.20;99.90;;;;;;5043822;28;20737;-68
2023/08/13 05:27:53;;;;;;;12.73;3.95;;;16.30;99.90;;;;;;5042157;28;20059;-69
2023/08/13 05:30:19;;;;;;;13.50;3.63;;;16.30;99.90;;;;;;5039125;28;20041;-69
2023/08/13 05:32:46;;;;;;;13.88;3.83;;;16.30;99.90;;;;;;5038588;28;20143;-69
2023/08/13 05:35:12;;;;;;;14.90;3.95;;;16.30;99.90;;;;;;5050643;28;20134;-69
2023/08/13 05:37:38;;;;;;;13.38;4.00;;;16.40;99.90;;;;;;5026738;28;20037;-68
2023/08/13 05:40:04;;;;;;;16.60;3.72;;;16.30;99.90;;;;;;5043389;28;20063;-68
2023/08/13 05:42:30;;;;;;;18.40;4.00;;;16.40;99.90;;;;;;5041086;28;20041;-69
2023/08/13 05:44:56;;;;;;;15.45;3.20;;;16.40;99.90;;;;;;5043640;28;20041;-69
2023/08/13 05:47:22;;;;;;;15.80;3.75;;;16.40;99.90;;;;;;5044080;28;20053;-68
2023/08/13 05:49:48;;;;;;;21.17;4.10;;;16.40;99.90;;;;;;5044518;28;20119;-69
2023/08/13 05:52:13;;;;;;;15.57;4.30;;;16.40;99.90;;;;;;5043080;28;20123;-69
2023/08/13 05:54:39;;;;;;;19.33;4.10;;;16.40;99.90;;;;;;5025965;28;20055;-69
2023/08/13 05:57:05;;;;;;;17.10;3.88;;;16.40;99.90;;;;;;5044552;28;20157;-69
2023/08/13 05:59:33;;;;;;;14.52;3.35;;;16.50;99.90;;;;;;5045455;28;20159;-69
2023/08/13 06:01:58;;;;;;;13.98;3.40;;;16.50;99.90;;;;;;5039294;28;21868;-69
2023/08/13 06:04:24;;;;;;;15.13;4.03;;;16.50;99.90;;;;;;5040998;28;20054;-69
2023/08/13 06:06:50;;;;;;;18.67;3.95;;;16.50;99.90;;;;;;5044181;28;20068;-69
2023/08/13 06:09:15;;;;;;;14.27;3.65;;;16.50;99.90;;;;;;5043199;28;20118;-69
2023/08/13 06:11:41;;;;;;;15.82;4.40;;;16.50;99.90;;;;;;5043596;28;20059;-69
2023/08/13 06:14:07;;;;;;;15.20;4.07;;;16.40;99.90;;;;;;5043235;28;20048;-69
2023/08/13 06:16:32;;;;;;;16.00;4.18;;;16.50;99.90;;;;;;5044271;28;20096;-69
2023/08/13 06:18:58;;;;;;;14.93;3.63;;;16.50;99.90;;;;;;5043895;28;20049;-69
2023/08/13 06:21:24;;;;;;;18.15;4.30;;;16.50;99.90;;;;;;5042061;28;20114;-69
2023/08/13 06:23:50;;;;;;;18.95;4.57;;;16.50;99.90;;;;;;5042423;28;20056;-69
2023/08/13 06:26:15;;;;;;;13.13;3.83;;;16.50;99.90;;;;;;5045070;28;20218;-69
2023/08/13 06:28:41;;;;;;;20.60;4.25;;;16.50;99.90;;;;;;5042876;28;20041;-69
2023/08/13 06:31:07;;;;;;;18.20;4.38;;;16.60;99.90;;;;;;5043877;28;20520;-69
2023/08/13 06:33:32;;;;;;;17.67;4.00;;;16.60;99.90;;;;;;5039879;28;20045;-69
2023/08/13 06:35:58;;;;;;;18.10;4.38;;;16.70;99.90;;;;;;5045059;28;20772;-70
2023/08/13 06:38:25;;;;;;;17.13;4.60;;;16.80;99.90;;;;;;5041484;28;20083;-69
2023/08/13 06:40:51;;;;;;;15.05;4.00;;;16.90;99.90;;;;;;5045653;28;20049;-69
2023/08/13 06:43:17;;;;;;;15.85;4.05;;;17.00;99.90;;;;;;5044520;28;20413;-69
2023/08/13 06:45:45;;;;;;;16.20;4.40;;;17.10;99.90;;;;;;5046110;28;20507;-69
2023/08/13 06:48:11;;;;;;;14.50;4.00;;;17.10;99.90;;;;;;5044367;28;20048;-69
2023/08/13 06:50:38;;;;;;;15.85;3.67;;;17.10;99.90;;;;;;5044938;28;20048;-69
2023/08/13 06:53:04;;;;;;;13.70;3.92;;;17.10;99.90;;;;;;5043133;28;20120;-69
2023/08/13 06:55:30;;;;;;;17.45;4.53;;;17.10;99.90;;;;;;5042112;28;20174;-69
2023/08/13 06:57:58;;;;;;;15.43;3.65;;;17.20;99.90;;;;;;5048712;28;20052;-69
2023/08/13 07:00:24;;;;;;;19.75;4.00;;;17.10;99.90;;;;;;5047065;28;20055;-69
2023/08/13 07:02:50;;;;;;;18.52;3.95;;;17.20;99.90;;;;;;5030257;28;20041;-69
2023/08/13 07:05:17;;;;;;;14.30;4.03;;;17.20;99.90;;;;;;5046769;28;20056;-69
2023/08/13 07:07:43;;;;;;;15.88;4.45;;;17.20;99.90;;;;;;5078217;28;20053;-69
2023/08/13 07:10:09;;;;;;;11.88;3.45;;;17.20;99.90;;;;;;5044743;28;20095;-69
2023/08/13 07:12:35;;;;;;;16.38;3.97;;;17.20;99.90;;;;;;5042169;28;20082;-69
2023/08/13 07:15:03;;;;;;;11.70;4.05;;;17.30;99.90;;;;;;5043116;28;20076;-69
2023/08/13 07:17:30;;;;;;;15.52;4.00;;;17.30;99.90;;;;;;5043584;28;20041;-69
2023/08/13 07:19:56;;;;;;;16.02;4.20;;;17.40;99.90;;;;;;5046622;28;20528;-69
2023/08/13 07:22:21;;;;;;;13.43;4.40;;;17.40;99.90;;;;;;5046352;28;20131;-69
2023/08/13 07:24:47;;;;;;;20.20;4.53;;;17.50;99.90;;;;;;5047310;28;20037;-69
2023/08/13 07:27:13;;;;;;;13.40;4.22;;;17.50;99.90;;;;;;5042061;28;20060;-69
2023/08/13 07:29:39;;;;;;;14.38;3.70;;;17.70;99.90;;;;;;5044089;28;20052;-69
2023/08/13 07:32:05;;;;;;;15.88;3.90;;;17.70;99.90;;;;;;5045716;28;20052;-69
2023/08/13 07:34:31;;;;;;;16.52;4.13;;;17.80;99.90;;;;;;5045483;28;20083;-69
2023/08/13 07:36:56;;;;;;;17.15;4.00;;;17.90;99.90;;;;;;5046423;28;20091;-69
2023/08/13 07:39:23;;;;;;;17.25;4.30;;;18.00;99.90;;;;;;5046640;28;20056;-69
2023/08/13 07:41:49;;;;;;;16.50;4.25;;;18.10;99.90;;;;;;5044535;28;20394;-69
2023/08/13 07:44:18;;;;;;;14.65;4.15;;;18.30;99.90;;;;;;5043340;28;20124;-69
2023/08/13 07:46:43;;;;;;;14.38;4.15;;;18.40;99.90;;;;;;5044721;28;20524;-71
2023/08/13 07:49:09;;;;;;;16.00;3.63;;;18.50;99.90;;;;;;5041351;28;20053;-70
2023/08/13 07:51:35;;;;;;;12.38;3.28;;;18.60;99.90;;;;;;5046079;28;20055;-69
2023/08/13 07:54:01;;;;;;;15.70;3.55;;;18.60;99.90;;;;;;5042867;28;20049;-69
2023/08/13 07:56:27;;;;;;;14.35;3.42;;;18.70;99.90;;;;;;5042428;28;20044;-70
2023/08/13 07:58:53;;;;;;;14.77;3.58;;;18.80;99.90;;;;;;5043665;28;20106;-69
2023/08/13 08:01:18;;;;;;;13.80;2.95;;;18.80;99.90;;;;;;5040133;28;20048;-69
2023/08/13 08:03:44;;;;;;;17.00;3.95;;;19.00;99.90;;;;;;5041550;28;20051;-69
2023/08/13 08:06:12;;;;;;;10.07;2.85;;;19.00;99.90;;;;;;5046634;28;20070;-69
2023/08/13 08:08:38;;;;;;;12.25;3.20;;;19.10;99.90;;;;;;5045205;28;20139;-69
2023/08/13 08:11:04;;;;;;;14.13;3.00;;;19.00;99.90;;;;;;5039712;28;20042;-69
2023/08/13 08:13:32;;;;;;;15.23;2.72;;;19.00;99.90;;;;;;5041672;28;20398;-70
2023/08/13 08:15:58;;;;;;;11.88;3.47;;;19.00;99.90;;;;;;5045696;28;20056;-70
2023/08/13 08:18:23;;;;;;;10.23;2.58;;;19.00;99.90;;;;;;5029087;28;20378;-71
2023/08/13 08:20:49;;;;;;;9.90;2.55;;;19.00;99.90;;;;;;5045850;28;20052;-69
2023/08/13 08:23:15;;;;;;;11.55;3.05;;;19.00;99.90;;;;;;5041616;28;20033;-70
2023/08/13 08:25:41;;;;;;;16.17;2.88;;;19.00;99.90;;;;;;5044738;28;20041;-70
2023/08/13 08:28:07;;;;;;;10.55;2.83;;;19.10;99.90;;;;;;5043595;28;20040;-70
2023/08/13 08:30:32;;;;;;;13.13;3.13;;;19.10;99.90;;;;;;5039931;28;20789;-70
2023/08/13 08:32:58;;;;;;;16.85;3.15;;;19.20;99.90;;;;;;5042285;28;20045;-70
2023/08/13 08:35:24;;;;;;;16.88;3.40;;;19.20;99.90;;;;;;5045349;28;20048;-70
2023/08/13 08:37:50;;;;;;;12.10;3.00;;;19.40;99.90;;;;;;5045766;28;20045;-70
2023/08/13 08:40:15;;;;;;;15.65;3.05;;;19.40;99.90;;;;;;5028659;28;20337;-70
2023/08/13 08:42:42;;;;;;;15.25;2.53;;;19.50;99.90;;;;;;5043308;28;20052;-70
2023/08/13 08:45:09;;;;;;;17.10;2.97;;;19.60;99.90;;;;;;5043737;28;20083;-70
2023/08/13 08:47:40;;;;;;;11.98;2.60;;;19.60;99.90;;;;;;5042261;28;20045;-70
2023/08/13 08:50:06;;;;;;;9.93;2.40;;;19.60;99.90;;;;;;5037599;28;20074;-70
2023/08/13 08:52:33;;;;;;;11.85;3.38;;;19.70;99.90;;;;;;5044520;28;20439;-71
2023/08/13 08:55:01;;;;;;;12.60;2.90;;;19.70;99.90;;;;;;5041264;28;20628;-70
2023/08/13 08:57:26;;;;;;;12.70;2.50;;;19.80;99.90;;;;;;5038554;28;20127;-70
2023/08/13 08:59:52;;;;;;;11.85;2.65;;;19.90;99.90;;;;;;5041594;28;20181;-71
2023/08/13 09:02:18;;;;;;;13.05;2.80;;;19.90;99.90;;;;;;5022423;28;20053;-70
2023/08/13 09:04:43;;;;;;;8.13;2.50;;;20.00;99.90;;;;;;5038909;28;20059;-70
2023/08/13 09:07:09;;;;;;;11.63;2.53;;;20.10;99.90;;;;;;5044057;28;20040;-70
2023/08/13 09:09:36;;;;;;;11.07;2.42;;;20.10;99.90;;;;;;5044244;28;20124;-70
2023/08/13 09:12:02;;;;;;;11.25;2.95;;;20.20;99.90;;;;;;5045497;28;21329;-70
2023/08/13 09:14:28;;;;;;;10.82;2.70;;;20.30;99.90;;;;;;5035359;28;20135;-71
2023/08/13 09:16:56;;;;;;;10.80;1.92;;;20.50;99.90;;;;;;5072564;28;20128;-70
2023/08/13 09:19:24;;;;;;;9.65;2.13;;;20.60;99.90;;;;;;5039044;28;20053;-71
2023/08/13 09:21:52;;;;;;;11.68;2.22;;;20.60;99.90;;;;;;5041336;28;20547;-71
2023/08/13 09:24:18;;;;;;;6.68;1.60;;;20.70;99.90;;;;;;5038984;28;20052;-71
2023/08/13 09:26:45;;;;;;;7.93;1.65;;;20.70;99.90;;;;;;5023400;28;20478;-72
2023/08/13 09:29:11;;;;;;;11.20;2.20;;;20.70;99.90;;;;;;5042552;28;20103;-71
2023/08/13 09:31:37;;;;;;;8.80;1.80;;;20.70;99.90;;;;;;5037305;28;20120;-71
2023/08/13 09:34:03;;;;;;;10.40;2.05;;;20.70;99.90;;;;;;5036093;28;20124;-71
2023/08/13 09:36:29;;;;;;;10.65;2.20;;;20.70;99.90;;;;;;5038163;28;20497;-71
2023/08/13 09:38:56;;;;;;;7.70;1.67;;;20.80;99.90;;;;;;5037802;28;20464;-71
2023/08/13 09:41:22;;;;;;;12.75;2.70;;;20.80;99.90;;;;;;5040737;28;20152;-70
2023/08/13 09:43:49;;;;;;;9.98;2.08;;;20.90;99.90;;;;;;5070825;28;20442;-70
2023/08/13 09:46:21;;;;;;;7.70;2.08;;;21.00;99.90;;;;;;5041167;28;20116;-69
2023/08/13 09:48:50;;;;;;;9.57;1.50;;;21.10;99.90;;;;;;5038044;28;20134;-69
2023/08/13 09:51:19;;;;;;;8.30;1.85;;;21.10;99.90;;;;;;5019491;28;20036;-70
2023/08/13 09:53:57;;;;;;;9.48;1.63;;;21.10;99.90;;;;;;5024997;28;20045;-71
2023/08/13 09:56:27;;;;;;;7.80;1.67;;;21.10;99.90;;;;;;5039209;28;21488;-69
2023/08/13 09:58:52;;;;;;;8.43;2.00;;;21.10;99.90;;;;;;5037940;28;20572;-69
2023/08/13 10:01:18;;;;;;;6.57;1.73;;;21.00;99.90;;;;;;5041128;28;20103;-68
2023/08/13 10:03:44;;;;;;;7.72;1.85;;;21.00;99.90;;;;;;5041615;28;20041;-70
2023/08/13 10:06:10;;;;;;;9.27;1.77;;;21.00;99.90;;;;;;5042480;28;20037;-69
2023/08/13 10:08:36;;;;;;;10.77;1.98;;;21.00;99.90;;;;;;5043380;28;20687;-69
2023/08/13 10:11:02;;;;;;;9.27;1.85;;;21.00;99.90;;;;;;5044033;28;20191;-69
2023/08/13 10:13:28;;;;;;;10.50;2.17;;;21.00;99.90;;;;;;5024917;28;20055;-69
2023/08/13 10:15:54;;;;;;;7.93;1.50;;;20.90;99.90;;;;;;5039510;28;20408;-69
2023/08/13 10:18:22;;;;;;;7.93;1.80;;;20.90;99.90;;;;;;5045158;28;20045;-69
2023/08/13 10:20:48;;;;;;;9.75;2.00;;;20.90;99.90;;;;;;5029067;28;20045;-68
2023/08/13 10:23:16;;;;;;;6.75;1.45;;;21.00;99.90;;;;;;5043845;28;20047;-68
2023/08/13 10:25:44;;;;;;;8.23;1.63;;;21.10;99.90;;;;;;5039923;28;20060;-68
2023/08/13 10:28:20;;;;;;;7.60;1.73;;;21.20;99.90;;;;;;5039272;28;20072;-67
2023/08/13 10:30:46;;;;;;;7.45;1.98;;;21.30;99.90;;;;;;5040996;28;20053;-68
2023/08/13 10:33:14;;;;;;;7.93;2.00;;;21.40;99.90;;;;;;5041797;28;20094;-68
2023/08/13 10:35:42;;;;;;;7.35;1.80;;;21.40;99.90;;;;;;5036609;28;20048;-68
2023/08/13 10:38:08;;;;;;;6.65;1.40;;;21.40;99.90;;;;;;5027974;28;20041;-68
2023/08/13 10:40:35;;;;;;;7.75;1.88;;;21.50;99.90;;;;;;5040482;28;20561;-68
2023/08/13 10:43:03;;;;;;;7.00;1.50;;;21.50;99.90;;;;;;5043037;28;20409;-68
2023/08/13 10:45:36;;;;;;;10.27;2.17;;;21.60;99.90;;;;;;5041401;28;20048;-68
2023/08/13 10:48:04;;;;;;;10.32;2.00;;;21.70;99.90;;;;;;5043033;28;20111;-68
2023/08/13 10:50:43;;;;;;;7.40;1.55;;;21.70;99.90;;;;;;5044066;28;20049;-68
2023/08/13 10:53:26;;;;;;;8.48;1.70;;;21.80;99.90;;;;;;5040411;28;20103;-69
2023/08/13 10:55:54;;;;;;;7.22;1.73;;;21.90;99.90;;;;;;5038448;28;20080;-69
2023/08/13 10:58:36;;;;;;;6.97;1.60;;;22.00;99.90;;;;;;5023790;28;20048;-69
2023/08/13 11:01:19;;;;;;;7.07;1.42;;;22.00;99.90;;;;;;5042853;28;20041;-69
2023/08/13 11:03:54;;;;;;;7.53;1.70;;;22.20;99.90;;;;;;5039179;28;20382;-69
2023/08/13 11:06:22;;;;;;;5.45;1.40;;;22.20;99.90;;;;;;5039170;28;20048;-69
2023/08/13 11:08:48;;;;;;;8.50;1.63;;;22.20;99.90;;;;;;5037820;28;20501;-69
2023/08/13 11:11:18;;;;;;;8.57;1.80;;;22.30;99.90;;;;;;5036394;28;20453;-69
2023/08/13 11:13:45;;;;;;;6.53;1.37;;;22.20;99.90;;;;;;5043801;28;20052;-70
2023/08/13 11:16:11;;;;;;;5.03;1.30;;;22.20;99.90;;;;;;5045487;28;20077;-69
2023/08/13 11:18:37;;;;;;;4.60;1.55;;;22.20;99.90;;;;;;5038312;28;20094;-69
2023/08/13 11:21:04;;;;;;;5.50;1.38;;;22.20;99.90;;;;;;5041817;28;20096;-69
2023/08/13 11:23:30;;;;;;;6.80;1.40;;;22.20;99.90;;;;;;5040098;28;20041;-69
2023/08/13 11:25:56;;;;;;;5.78;1.30;;;22.30;99.90;;;;;;5046867;28;20124;-69
2023/08/13 11:28:23;;;;;;;5.63;1.50;;;22.30;99.90;;;;;;5041063;28;20980;-69
2023/08/13 11:30:52;;;;;;;8.93;1.52;;;22.30;99.90;;;;;;5040837;28;20058;-72
2023/08/13 11:33:19;;;;;;;4.57;1.27;;;22.30;99.90;;;;;;5040893;28;20072;-72
2023/08/13 11:35:48;;;;;;;6.95;1.80;;;22.20;99.90;;;;;;5038583;28;20095;-73
2023/08/13 11:38:15;;;;;;;4.93;1.30;;;22.20;99.90;;;;;;5040537;28;20048;-73
2023/08/13 11:40:40;;;;;;;5.85;1.73;;;22.20;99.90;;;;;;5023794;28;20044;-73
2023/08/13 11:43:10;;;;;;;6.10;1.75;;;22.20;99.90;;;;;;5040808;28;20045;-73
2023/08/13 11:45:36;;;;;;;6.43;1.52;;;22.20;99.90;;;;;;5044150;28;20144;-71
2023/08/13 11:48:12;;;;;;;8.43;1.50;;;22.20;99.90;;;;;;5042316;28;20037;-73
2023/08/13 11:50:39;;;;;;;8.07;1.67;;;22.30;99.90;;;;;;5040879;28;20051;-72
2023/08/13 11:53:14;;;;;;;7.82;1.55;;;22.20;99.90;;;;;;5040767;28;20733;-72
2023/08/13 11:55:45;;;;;;;8.93;1.50;;;22.20;99.90;;;;;;5042272;28;20048;-71
2023/08/13 11:58:16;;;;;;;6.28;1.63;;;22.20;99.90;;;;;;5042363;28;20044;-71
2023/08/13 12:00:42;;;;;;;5.85;1.60;;;22.10;99.90;;;;;;5042570;28;20045;-71
2023/08/13 12:03:08;;;;;;;7.93;1.30;;;22.10;99.90;;;;;;5044202;28;20048;-72
2023/08/13 12:05:35;;;;;;;7.40;1.70;;;22.00;99.90;;;;;;5042497;28;20606;-72
2023/08/13 12:08:05;;;;;;;7.50;1.40;;;21.90;99.90;;;;;;5039021;28;20044;-72
2023/08/13 12:10:32;;;;;;;7.18;2.03;;;21.90;99.90;;;;;;5035701;28;20098;-71
2023/08/13 12:12:59;;;;;;;8.40;1.65;;;21.90;99.90;;;;;;5026487;28;20052;-71
2023/08/13 12:15:25;;;;;;;7.38;1.55;;;21.80;99.90;;;;;;5037499;28;20048;-72
2023/08/13 12:17:56;;;;;;;7.00;2.22;;;21.70;99.90;;;;;;5040249;28;20041;-73
2023/08/13 12:20:23;;;;;;;;;;;21.70;99.90;;;;;;5038536;28;20674;-72
2023/08/13 12:22:49;;;;;;;7.57;1.50;;;21.70;99.90;;;;;;5035711;28;19931;-72
2023/08/13 12:25:16;;;;;;;6.93;1.85;;;21.70;99.90;;;;;;5037175;28;20051;-73
2023/08/13 12:27:42;;;;;;;8.75;1.52;;;21.60;99.90;;;;;;5037996;28;20094;-72
2023/08/13 12:30:09;;;;;;;9.82;2.35;;;21.70;99.90;;;;;;5025563;28;20778;-73
2023/08/13 12:32:36;;;;;;;7.55;1.80;;;21.70;99.90;;;;;;5034399;28;20297;-72
2023/08/13 12:35:01;;;;;;;6.35;1.55;;;21.70;99.90;;;;;;5016376;28;20449;-72
2023/08/13 12:37:27;;;;;;;7.78;1.55;;;21.70;99.90;;;;;;5038000;28;20036;-74
2023/08/13 12:39:53;;;;;;;8.27;1.70;;;21.70;99.90;;;;;;5039150;28;20037;-73